sensor_id;sensor_type;location;lat;lon;timestamp;pressure;altitude;pressure_sealevel;temperature;humidity
45323;BME280;31382;50.200;8.674;2023-07-13T00:03:34;100184.66;;;22.12;42.62
45323;BME280;31382;50.200;8.674;2023-07-13T00:08:36;100181.66;;;22.14;41.67
45323;BME280;31382;50.200;8.674;2023-07-13T00:13:38;100186.44;;;22.24;41.55
45323;BME280;31382;50.200;8.674;2023-07-13T00:18:40;100194.31;;;22.20;41.38
45323;BME280;31382;50.200;8.674;2023-07-13T00:23:42;100195.66;;;22.17;40.93
45323;BME280;31382;50.200;8.674;2023-07-13T00:28:44;100193.69;;;22.13;41.07
45323;BME280;31382;50.200;8.674;2023-07-13T00:33:45;100194.81;;;22.17;40.98
45323;BME280;31382;50.200;8.674;2023-07-13T00:38:47;100197.38;;;22.24;40.65
45323;BME280;31382;50.200;8.674;2023-07-13T00:43:48;100199.25;;;22.18;40.62
45323;BME280;31382;50.200;8.674;2023-07-13T00:48:50;100201.72;;;22.20;40.75
45323;BME280;31382;50.200;8.674;2023-07-13T00:53:54;100204.53;;;22.25;40.62
45323;BME280;31382;50.200;8.674;2023-07-13T00:58:59;100199.81;;;22.20;40.58
45323;BME280;31382;50.200;8.674;2023-07-13T01:04:02;100206.59;;;22.17;40.38
45323;BME280;31382;50.200;8.674;2023-07-13T01:09:04;100205.75;;;22.12;40.69
45323;BME280;31382;50.200;8.674;2023-07-13T01:14:06;100203.19;;;22.05;40.96
45323;BME280;31382;50.200;8.674;2023-07-13T01:19:25;100206.50;;;21.85;41.16
45323;BME280;31382;50.200;8.674;2023-07-13T01:24:40;100213.31;;;21.83;41.29
45323;BME280;31382;50.200;8.674;2023-07-13T01:29:43;100204.72;;;21.74;41.42
45323;BME280;31382;50.200;8.674;2023-07-13T01:34:48;100205.72;;;21.68;41.23
45323;BME280;31382;50.200;8.674;2023-07-13T01:39:49;100191.78;;;21.69;40.62
45323;BME280;31382;50.200;8.674;2023-07-13T01:44:51;100211.16;;;21.63;40.49
45323;BME280;31382;50.200;8.674;2023-07-13T01:49:52;100215.47;;;21.58;40.78
45323;BME280;31382;50.200;8.674;2023-07-13T01:54:53;100213.56;;;21.59;40.27
45323;BME280;31382;50.200;8.674;2023-07-13T01:59:55;100221.09;;;21.52;40.65
45323;BME280;31382;50.200;8.674;2023-07-13T02:04:57;100219.19;;;21.52;40.83
45323;BME280;31382;50.200;8.674;2023-07-13T02:09:58;100212.00;;;21.29;40.77
45323;BME280;31382;50.200;8.674;2023-07-13T02:14:59;100207.03;;;21.26;41.21
45323;BME280;31382;50.200;8.674;2023-07-13T02:20:02;100210.66;;;21.32;41.08
45323;BME280;31382;50.200;8.674;2023-07-13T02:25:04;100210.22;;;21.40;41.09
45323;BME280;31382;50.200;8.674;2023-07-13T02:30:07;100213.16;;;21.33;41.10
45323;BME280;31382;50.200;8.674;2023-07-13T02:35:09;100220.78;;;21.31;41.47
45323;BME280;31382;50.200;8.674;2023-07-13T02:40:11;100215.47;;;21.25;40.80
45323;BME280;31382;50.200;8.674;2023-07-13T02:45:12;100222.69;;;21.31;40.99
45323;BME280;31382;50.200;8.674;2023-07-13T02:50:15;100219.69;;;21.32;41.25
45323;BME280;31382;50.200;8.674;2023-07-13T02:55:16;100225.16;;;21.32;41.84
45323;BME280;31382;50.200;8.674;2023-07-13T03:00:18;100234.88;;;21.23;41.60
45323;BME280;31382;50.200;8.674;2023-07-13T03:05:19;100239.34;;;21.12;42.19
45323;BME280;31382;50.200;8.674;2023-07-13T03:10:21;100236.44;;;21.02;42.54
45323;BME280;31382;50.200;8.674;2023-07-13T03:15:22;100247.69;;;20.89;42.68
45323;BME280;31382;50.200;8.674;2023-07-13T03:20:24;100243.72;;;20.79;42.29
45323;BME280;31382;50.200;8.674;2023-07-13T03:25:25;100253.88;;;20.67;42.78
45323;BME280;31382;50.200;8.674;2023-07-13T03:30:27;100260.91;;;20.51;43.23
45323;BME280;31382;50.200;8.674;2023-07-13T03:35:28;100281.16;;;20.38;43.99
45323;BME280;31382;50.200;8.674;2023-07-13T03:40:30;100281.19;;;20.27;43.93
45323;BME280;31382;50.200;8.674;2023-07-13T03:45:31;100282.53;;;20.24;44.26
45323;BME280;31382;50.200;8.674;2023-07-13T03:50:33;100293.47;;;20.12;44.46
45323;BME280;31382;50.200;8.674;2023-07-13T03:55:34;100296.06;;;20.07;45.17
45323;BME280;31382;50.200;8.674;2023-07-13T04:00:35;100299.53;;;20.03;45.30
45323;BME280;31382;50.200;8.674;2023-07-13T04:05:37;100300.59;;;20.01;45.19
45323;BME280;31382;50.200;8.674;2023-07-13T04:10:42;100291.22;;;19.97;45.57
45323;BME280;31382;50.200;8.674;2023-07-13T04:15:44;100298.69;;;19.78;45.90
45323;BME280;31382;50.200;8.674;2023-07-13T04:20:49;100298.59;;;19.73;46.41
45323;BME280;31382;50.200;8.674;2023-07-13T04:25:52;100294.19;;;19.84;45.86
45323;BME280;31382;50.200;8.674;2023-07-13T04:30:54;100292.66;;;19.88;45.84
45323;BME280;31382;50.200;8.674;2023-07-13T04:35:56;100300.72;;;19.95;45.66
45323;BME280;31382;50.200;8.674;2023-07-13T04:41:00;100299.41;;;19.97;45.70
45323;BME280;31382;50.200;8.674;2023-07-13T04:46:08;100293.81;;;20.04;45.92
45323;BME280;31382;50.200;8.674;2023-07-13T04:51:11;100295.25;;;20.07;45.86
45323;BME280;31382;50.200;8.674;2023-07-13T04:56:13;100300.69;;;20.18;45.86
45323;BME280;31382;50.200;8.674;2023-07-13T05:01:14;100293.06;;;20.32;45.38
45323;BME280;31382;50.200;8.674;2023-07-13T05:06:16;100290.28;;;20.44;45.34
45323;BME280;31382;50.200;8.674;2023-07-13T05:11:18;100301.41;;;20.54;45.05
45323;BME280;31382;50.200;8.674;2023-07-13T05:16:19;100300.56;;;20.66;45.10
45323;BME280;31382;50.200;8.674;2023-07-13T05:21:21;100304.53;;;20.75;44.95
45323;BME280;31382;50.200;8.674;2023-07-13T05:26:22;100312.09;;;20.85;44.79
45323;BME280;31382;50.200;8.674;2023-07-13T05:31:23;100308.66;;;20.89;44.37
45323;BME280;31382;50.200;8.674;2023-07-13T05:36:25;100317.91;;;20.88;44.41
45323;BME280;31382;50.200;8.674;2023-07-13T05:41:26;100322.16;;;20.96;43.83
45323;BME280;31382;50.200;8.674;2023-07-13T05:46:28;100318.84;;;21.11;43.33
45323;BME280;31382;50.200;8.674;2023-07-13T05:51:30;100313.25;;;21.17;43.18
45323;BME280;31382;50.200;8.674;2023-07-13T05:56:31;100325.34;;;21.22;42.26
45323;BME280;31382;50.200;8.674;2023-07-13T06:01:32;100323.69;;;21.37;41.87
45323;BME280;31382;50.200;8.674;2023-07-13T06:06:34;100329.84;;;21.62;41.71
45323;BME280;31382;50.200;8.674;2023-07-13T06:11:35;100330.66;;;21.79;41.38
45323;BME280;31382;50.200;8.674;2023-07-13T06:16:37;100334.34;;;22.07;40.83
45323;BME280;31382;50.200;8.674;2023-07-13T06:21:38;100331.69;;;22.12;40.87
45323;BME280;31382;50.200;8.674;2023-07-13T06:26:40;100333.16;;;22.20;40.90
45323;BME280;31382;50.200;8.674;2023-07-13T06:31:42;100339.03;;;22.28;40.56
45323;BME280;31382;50.200;8.674;2023-07-13T06:36:44;100338.22;;;22.28;40.26
45323;BME280;31382;50.200;8.674;2023-07-13T06:41:46;100346.84;;;22.20;40.07
45323;BME280;31382;50.200;8.674;2023-07-13T06:46:49;100345.22;;;22.41;39.79
45323;BME280;31382;50.200;8.674;2023-07-13T06:51:53;100353.56;;;22.51;39.74
45323;BME280;31382;50.200;8.674;2023-07-13T06:56:56;100350.13;;;22.61;39.93
45323;BME280;31382;50.200;8.674;2023-07-13T07:01:57;100361.06;;;22.61;39.37
45323;BME280;31382;50.200;8.674;2023-07-13T07:06:59;100359.91;;;22.78;39.17
45323;BME280;31382;50.200;8.674;2023-07-13T07:12:00;100358.72;;;22.96;39.32
45323;BME280;31382;50.200;8.674;2023-07-13T07:17:04;100369.44;;;22.98;38.92
45323;BME280;31382;50.200;8.674;2023-07-13T07:22:06;100363.75;;;23.27;38.43
45323;BME280;31382;50.200;8.674;2023-07-13T07:27:07;100367.25;;;23.22;38.11
45323;BME280;31382;50.200;8.674;2023-07-13T07:32:12;100366.13;;;23.18;37.43
45323;BME280;31382;50.200;8.674;2023-07-13T07:37:33;100372.22;;;23.25;37.56
45323;BME280;31382;50.200;8.674;2023-07-13T07:42:37;100370.38;;;23.31;37.15
45323;BME280;31382;50.200;8.674;2023-07-13T07:47:39;100367.31;;;23.60;36.70
45323;BME280;31382;50.200;8.674;2023-07-13T07:52:40;100371.94;;;23.86;36.34
45323;BME280;31382;50.200;8.674;2023-07-13T07:57:42;100365.94;;;23.94;35.85
45323;BME280;31382;50.200;8.674;2023-07-13T08:02:46;100372.03;;;24.02;35.35
45323;BME280;31382;50.200;8.674;2023-07-13T08:07:52;100363.56;;;24.08;34.96
45323;BME280;31382;50.200;8.674;2023-07-13T08:12:53;100369.34;;;24.12;34.78
45323;BME280;31382;50.200;8.674;2023-07-13T08:17:58;100365.81;;;24.17;34.61
45323;BME280;31382;50.200;8.674;2023-07-13T08:22:59;100371.00;;;24.13;34.45
45323;BME280;31382;50.200;8.674;2023-07-13T08:28:03;100359.88;;;24.40;34.55
45323;BME280;31382;50.200;8.674;2023-07-13T08:33:04;100359.34;;;24.43;34.00
45323;BME280;31382;50.200;8.674;2023-07-13T08:38:06;100360.72;;;24.46;33.76
45323;BME280;31382;50.200;8.674;2023-07-13T08:43:16;100348.66;;;24.47;33.52
45323;BME280;31382;50.200;8.674;2023-07-13T08:48:22;100347.63;;;24.58;33.74
45323;BME280;31382;50.200;8.674;2023-07-13T08:53:32;100348.78;;;24.78;33.06
45323;BME280;31382;50.200;8.674;2023-07-13T08:58:36;100352.38;;;24.83;33.31
45323;BME280;31382;50.200;8.674;2023-07-13T09:03:53;100350.19;;;24.96;33.37
45323;BME280;31382;50.200;8.674;2023-07-13T09:09:02;100359.06;;;25.23;32.30
45323;BME280;31382;50.200;8.674;2023-07-13T09:19:25;100359.34;;;25.37;31.44
45323;BME280;31382;50.200;8.674;2023-07-13T09:24:38;100354.09;;;25.87;31.06
45323;BME280;31382;50.200;8.674;2023-07-13T09:30:29;100340.63;;;25.70;31.17
45323;BME280;31382;50.200;8.674;2023-07-13T09:35:12;100341.69;;;26.10;30.82
45323;BME280;31382;50.200;8.674;2023-07-13T09:40:28;100344.44;;;26.15;30.84
45323;BME280;31382;50.200;8.674;2023-07-13T09:45:33;100346.06;;;26.21;30.42
45323;BME280;31382;50.200;8.674;2023-07-13T09:50:35;100345.38;;;26.50;29.47
45323;BME280;31382;50.200;8.674;2023-07-13T09:55:39;100350.00;;;26.75;29.42
45323;BME280;31382;50.200;8.674;2023-07-13T10:00:43;100347.44;;;26.89;29.18
45323;BME280;31382;50.200;8.674;2023-07-13T10:05:46;100345.44;;;26.45;29.19
45323;BME280;31382;50.200;8.674;2023-07-13T10:10:58;100341.81;;;26.49;28.93
45323;BME280;31382;50.200;8.674;2023-07-13T10:16:00;100344.28;;;26.61;28.32
45323;BME280;31382;50.200;8.674;2023-07-13T10:21:15;100355.09;;;26.32;29.17
45323;BME280;31382;50.200;8.674;2023-07-13T10:26:30;100351.88;;;26.09;28.67
45323;BME280;31382;50.200;8.674;2023-07-13T10:31:40;100343.91;;;25.98;28.51
45323;BME280;31382;50.200;8.674;2023-07-13T10:36:45;100345.81;;;25.87;29.07
45323;BME280;31382;50.200;8.674;2023-07-13T10:41:55;100353.03;;;25.78;29.31
45323;BME280;31382;50.200;8.674;2023-07-13T10:47:01;100349.44;;;25.98;28.95
45323;BME280;31382;50.200;8.674;2023-07-13T10:52:03;100356.50;;;26.29;28.13
45323;BME280;31382;50.200;8.674;2023-07-13T10:57:19;100350.13;;;26.34;27.90
45323;BME280;31382;50.200;8.674;2023-07-13T11:02:25;100339.47;;;26.17;28.51
45323;BME280;31382;50.200;8.674;2023-07-13T11:07:30;100342.41;;;26.36;28.44
45323;BME280;31382;50.200;8.674;2023-07-13T11:12:51;100338.03;;;26.35;28.31
45323;BME280;31382;50.200;8.674;2023-07-13T11:17:55;100337.25;;;26.84;27.98
45323;BME280;31382;50.200;8.674;2023-07-13T11:28:22;100335.22;;;27.00;27.01
45323;BME280;31382;50.200;8.674;2023-07-13T11:33:28;100332.84;;;27.23;27.17
45323;BME280;31382;50.200;8.674;2023-07-13T11:38:38;100338.34;;;27.33;27.36
45323;BME280;31382;50.200;8.674;2023-07-13T11:43:40;100333.34;;;27.64;27.17
45323;BME280;31382;50.200;8.674;2023-07-13T11:48:41;100319.03;;;27.92;26.76
45323;BME280;31382;50.200;8.674;2023-07-13T11:53:47;100315.28;;;28.49;26.02
45323;BME280;31382;50.200;8.674;2023-07-13T11:58:55;100324.38;;;28.31;25.83
45323;BME280;31382;50.200;8.674;2023-07-13T12:04:02;100324.25;;;28.65;25.66
45323;BME280;31382;50.200;8.674;2023-07-13T12:09:13;100322.59;;;28.64;25.38
45323;BME280;31382;50.200;8.674;2023-07-13T12:14:18;100323.31;;;28.51;25.26
45323;BME280;31382;50.200;8.674;2023-07-13T12:19:23;100330.50;;;28.28;25.26
45323;BME280;31382;50.200;8.674;2023-07-13T12:24:25;100327.44;;;28.05;25.61
45323;BME280;31382;50.200;8.674;2023-07-13T12:29:27;100329.91;;;28.07;25.76
45323;BME280;31382;50.200;8.674;2023-07-13T12:34:29;100339.03;;;28.07;25.54
45323;BME280;31382;50.200;8.674;2023-07-13T12:39:43;100337.97;;;28.03;26.03
45323;BME280;31382;50.200;8.674;2023-07-13T12:44:46;100351.13;;;27.82;26.19
45323;BME280;31382;50.200;8.674;2023-07-13T12:49:56;100355.38;;;27.75;26.20
45323;BME280;31382;50.200;8.674;2023-07-13T12:55:04;100353.66;;;27.49;26.34
45323;BME280;31382;50.200;8.674;2023-07-13T13:05:22;100356.59;;;27.19;26.61
45323;BME280;31382;50.200;8.674;2023-07-13T13:10:26;100361.47;;;26.98;26.43
45323;BME280;31382;50.200;8.674;2023-07-13T13:15:28;100368.13;;;26.86;26.80
45323;BME280;31382;50.200;8.674;2023-07-13T13:20:29;100367.34;;;26.81;26.55
45323;BME280;31382;50.200;8.674;2023-07-13T13:25:31;100373.06;;;26.89;27.18
45323;BME280;31382;50.200;8.674;2023-07-13T13:30:32;100375.00;;;26.89;27.77
45323;BME280;31382;50.200;8.674;2023-07-13T13:35:33;100380.78;;;26.98;27.95
45323;BME280;31382;50.200;8.674;2023-07-13T13:40:35;100382.69;;;26.97;27.82
45323;BME280;31382;50.200;8.674;2023-07-13T13:45:36;100373.19;;;27.24;27.39
45323;BME280;31382;50.200;8.674;2023-07-13T13:50:38;100379.78;;;27.28;27.83
45323;BME280;31382;50.200;8.674;2023-07-13T13:55:40;100366.50;;;27.30;27.64
45323;BME280;31382;50.200;8.674;2023-07-13T14:00:43;100377.31;;;27.21;27.93
45323;BME280;31382;50.200;8.674;2023-07-13T14:05:48;100385.41;;;27.07;28.16
45323;BME280;31382;50.200;8.674;2023-07-13T14:10:53;100379.13;;;27.41;27.92
45323;BME280;31382;50.200;8.674;2023-07-13T14:15:55;100383.13;;;27.20;28.19
45323;BME280;31382;50.200;8.674;2023-07-13T14:20:56;100385.28;;;27.33;27.82
45323;BME280;31382;50.200;8.674;2023-07-13T14:25:58;100389.22;;;27.56;27.67
45323;BME280;31382;50.200;8.674;2023-07-13T14:30:59;100391.09;;;27.26;28.58
45323;BME280;31382;50.200;8.674;2023-07-13T14:36:02;100399.88;;;27.34;28.02
45323;BME280;31382;50.200;8.674;2023-07-13T14:41:04;100401.59;;;27.64;27.67
45323;BME280;31382;50.200;8.674;2023-07-13T14:46:11;100405.16;;;27.30;28.02
45323;BME280;31382;50.200;8.674;2023-07-13T14:51:19;100408.78;;;27.20;27.91
45323;BME280;31382;50.200;8.674;2023-07-13T14:56:21;100408.56;;;27.12;28.24
45323;BME280;31382;50.200;8.674;2023-07-13T15:01:23;100395.41;;;27.77;27.59
45323;BME280;31382;50.200;8.674;2023-07-13T15:06:25;100406.72;;;27.76;26.68
45323;BME280;31382;50.200;8.674;2023-07-13T15:11:26;100399.59;;;28.04;25.97
45323;BME280;31382;50.200;8.674;2023-07-13T15:16:27;100402.06;;;28.29;25.92
45323;BME280;31382;50.200;8.674;2023-07-13T15:21:29;100406.94;;;27.84;26.54
45323;BME280;31382;50.200;8.674;2023-07-13T15:26:36;100403.50;;;27.98;26.51
45323;BME280;31382;50.200;8.674;2023-07-13T15:31:37;100401.75;;;28.36;26.02
45323;BME280;31382;50.200;8.674;2023-07-13T15:36:40;100406.38;;;27.87;26.26
45323;BME280;31382;50.200;8.674;2023-07-13T15:41:43;100396.28;;;28.02;26.42
45323;BME280;31382;50.200;8.674;2023-07-13T15:46:48;100395.25;;;28.22;26.57
45323;BME280;31382;50.200;8.674;2023-07-13T15:51:50;100394.38;;;28.02;26.53
45323;BME280;31382;50.200;8.674;2023-07-13T15:56:53;100388.31;;;27.66;26.77
45323;BME280;31382;50.200;8.674;2023-07-13T16:01:55;100394.44;;;27.58;26.49
45323;BME280;31382;50.200;8.674;2023-07-13T16:06:57;100384.78;;;27.95;26.42
45323;BME280;31382;50.200;8.674;2023-07-13T16:11:58;100396.00;;;28.03;26.45
45323;BME280;31382;50.200;8.674;2023-07-13T16:17:00;100381.53;;;28.12;26.30
45323;BME280;31382;50.200;8.674;2023-07-13T16:22:02;100386.66;;;27.65;27.08
45323;BME280;31382;50.200;8.674;2023-07-13T16:27:08;100378.66;;;27.63;26.79
45323;BME280;31382;50.200;8.674;2023-07-13T16:32:13;100376.63;;;28.08;26.03
45323;BME280;31382;50.200;8.674;2023-07-13T16:37:18;100377.09;;;28.64;25.80
45323;BME280;31382;50.200;8.674;2023-07-13T16:42:21;100378.97;;;29.12;25.62
45323;BME280;31382;50.200;8.674;2023-07-13T16:47:22;100382.75;;;29.16;25.37
45323;BME280;31382;50.200;8.674;2023-07-13T16:52:27;100382.72;;;28.97;25.22
45323;BME280;31382;50.200;8.674;2023-07-13T16:57:32;100389.78;;;28.65;25.52
45323;BME280;31382;50.200;8.674;2023-07-13T17:02:37;100379.34;;;28.62;25.17
45323;BME280;31382;50.200;8.674;2023-07-13T17:07:41;100383.16;;;28.66;25.14
45323;BME280;31382;50.200;8.674;2023-07-13T17:12:44;100383.06;;;28.71;24.99
45323;BME280;31382;50.200;8.674;2023-07-13T17:17:48;100382.03;;;28.43;25.41
45323;BME280;31382;50.200;8.674;2023-07-13T17:22:50;100378.66;;;28.22;25.61
45323;BME280;31382;50.200;8.674;2023-07-13T17:27:52;100386.78;;;28.61;25.66
45323;BME280;31382;50.200;8.674;2023-07-13T17:32:54;100374.72;;;28.76;25.22
45323;BME280;31382;50.200;8.674;2023-07-13T17:37:59;100377.56;;;28.90;25.00
45323;BME280;31382;50.200;8.674;2023-07-13T17:43:01;100382.31;;;28.41;25.47
45323;BME280;31382;50.200;8.674;2023-07-13T17:48:03;100387.03;;;28.17;25.92
45323;BME280;31382;50.200;8.674;2023-07-13T17:58:08;100392.28;;;27.89;25.99
45323;BME280;31382;50.200;8.674;2023-07-13T18:08:22;100398.56;;;27.21;26.59
45323;BME280;31382;50.200;8.674;2023-07-13T18:13:25;100393.38;;;27.09;27.15
45323;BME280;31382;50.200;8.674;2023-07-13T18:18:32;100405.38;;;26.89;27.49
45323;BME280;31382;50.200;8.674;2023-07-13T18:23:35;100408.25;;;26.53;27.63
45323;BME280;31382;50.200;8.674;2023-07-13T18:28:36;100407.47;;;26.42;27.72
45323;BME280;31382;50.200;8.674;2023-07-13T18:33:39;100405.25;;;26.34;28.14
45323;BME280;31382;50.200;8.674;2023-07-13T18:38:44;100403.63;;;26.33;28.19
45323;BME280;31382;50.200;8.674;2023-07-13T18:43:46;100407.25;;;26.28;28.55
45323;BME280;31382;50.200;8.674;2023-07-13T18:48:50;100402.81;;;26.22;28.56
45323;BME280;31382;50.200;8.674;2023-07-13T18:53:52;100401.72;;;26.23;28.88
45323;BME280;31382;50.200;8.674;2023-07-13T18:58:54;100410.56;;;26.10;28.73
45323;BME280;31382;50.200;8.674;2023-07-13T19:03:56;100412.25;;;25.90;29.46
45323;BME280;31382;50.200;8.674;2023-07-13T19:08:57;100415.53;;;25.77;29.61
45323;BME280;31382;50.200;8.674;2023-07-13T19:13:59;100416.38;;;25.67;29.56
45323;BME280;31382;50.200;8.674;2023-07-13T19:19:00;100417.75;;;25.60;30.15
45323;BME280;31382;50.200;8.674;2023-07-13T19:24:03;100425.97;;;25.44;30.22
45323;BME280;31382;50.200;8.674;2023-07-13T19:29:07;100432.00;;;25.31;30.32
45323;BME280;31382;50.200;8.674;2023-07-13T19:34:17;100433.88;;;25.20;30.57
45323;BME280;31382;50.200;8.674;2023-07-13T19:39:39;100441.81;;;24.96;30.78
45323;BME280;31382;50.200;8.674;2023-07-13T19:44:41;100452.22;;;24.89;31.58
45323;BME280;31382;50.200;8.674;2023-07-13T19:49:43;100466.22;;;24.82;31.76
45323;BME280;31382;50.200;8.674;2023-07-13T19:54:48;100465.28;;;24.66;31.82
45323;BME280;31382;50.200;8.674;2023-07-13T19:59:51;100459.75;;;24.51;32.96
45323;BME280;31382;50.200;8.674;2023-07-13T20:04:55;100471.16;;;24.38;32.93
45323;BME280;31382;50.200;8.674;2023-07-13T20:09:56;100488.66;;;24.26;33.49
45323;BME280;31382;50.200;8.674;2023-07-13T20:14:58;100484.97;;;24.10;33.42
45323;BME280;31382;50.200;8.674;2023-07-13T20:20:01;100497.69;;;23.89;34.30
45323;BME280;31382;50.200;8.674;2023-07-13T20:25:22;100495.06;;;23.72;34.99
45323;BME280;31382;50.200;8.674;2023-07-13T20:30:24;100504.50;;;23.54;35.59
45323;BME280;31382;50.200;8.674;2023-07-13T20:35:28;100510.06;;;23.38;35.98
45323;BME280;31382;50.200;8.674;2023-07-13T20:40:32;100501.06;;;23.20;36.68
45323;BME280;31382;50.200;8.674;2023-07-13T20:45:35;100507.22;;;23.05;37.00
45323;BME280;31382;50.200;8.674;2023-07-13T20:50:37;100507.06;;;22.95;37.43
45323;BME280;31382;50.200;8.674;2023-07-13T20:55:39;100510.09;;;22.76;37.97
45323;BME280;31382;50.200;8.674;2023-07-13T21:00:41;100519.19;;;22.60;38.24
45323;BME280;31382;50.200;8.674;2023-07-13T21:05:43;100520.69;;;22.51;39.03
45323;BME280;31382;50.200;8.674;2023-07-13T21:10:45;100515.31;;;22.39;39.38
45323;BME280;31382;50.200;8.674;2023-07-13T21:15:47;100515.72;;;22.31;39.81
45323;BME280;31382;50.200;8.674;2023-07-13T21:20:53;100513.91;;;22.20;40.42
45323;BME280;31382;50.200;8.674;2023-07-13T21:25:56;100525.41;;;22.05;40.23
45323;BME280;31382;50.200;8.674;2023-07-13T21:31:01;100522.63;;;21.88;41.31
45323;BME280;31382;50.200;8.674;2023-07-13T21:36:04;100537.13;;;21.71;41.55
45323;BME280;31382;50.200;8.674;2023-07-13T21:46:27;100544.38;;;21.37;42.03
45323;BME280;31382;50.200;8.674;2023-07-13T21:51:30;100563.31;;;21.27;42.44
45323;BME280;31382;50.200;8.674;2023-07-13T21:56:32;100557.88;;;21.15;42.68
45323;BME280;31382;50.200;8.674;2023-07-13T22:01:34;100568.25;;;21.01;42.58
45323;BME280;31382;50.200;8.674;2023-07-13T22:06:35;100562.31;;;20.92;42.62
45323;BME280;31382;50.200;8.674;2023-07-13T22:11:37;100565.78;;;20.76;43.03
45323;BME280;31382;50.200;8.674;2023-07-13T22:16:38;100555.44;;;20.66;42.83
45323;BME280;31382;50.200;8.674;2023-07-13T22:21:41;100563.50;;;20.61;42.82
45323;BME280;31382;50.200;8.674;2023-07-13T22:26:43;100572.38;;;20.56;43.14
45323;BME280;31382;50.200;8.674;2023-07-13T22:31:45;100578.44;;;20.47;43.43
45323;BME280;31382;50.200;8.674;2023-07-13T22:36:47;100587.44;;;20.35;44.11
45323;BME280;31382;50.200;8.674;2023-07-13T22:41:49;100579.00;;;20.25;44.11
45323;BME280;31382;50.200;8.674;2023-07-13T22:46:51;100586.00;;;20.21;44.66
45323;BME280;31382;50.200;8.674;2023-07-13T22:51:57;100584.75;;;20.05;44.04
45323;BME280;31382;50.200;8.674;2023-07-13T22:57:00;100587.34;;;20.00;44.50
45323;BME280;31382;50.200;8.674;2023-07-13T23:02:02;100583.03;;;19.92;45.52
45323;BME280;31382;50.200;8.674;2023-07-13T23:07:04;100579.22;;;19.81;45.69
45323;BME280;31382;50.200;8.674;2023-07-13T23:12:09;100588.72;;;19.79;45.73
45323;BME280;31382;50.200;8.674;2023-07-13T23:17:11;100579.69;;;19.78;46.07
45323;BME280;31382;50.200;8.674;2023-07-13T23:22:26;100574.22;;;19.78;46.06
45323;BME280;31382;50.200;8.674;2023-07-13T23:27:28;100569.03;;;19.77;46.38
45323;BME280;31382;50.200;8.674;2023-07-13T23:32:30;100567.41;;;19.69;46.72
45323;BME280;31382;50.200;8.674;2023-07-13T23:37:32;100574.13;;;19.67;46.88
45323;BME280;31382;50.200;8.674;2023-07-13T23:42:33;100572.34;;;19.60;47.35
45323;BME280;31382;50.200;8.674;2023-07-13T23:47:34;100580.84;;;19.52;47.67
45323;BME280;31382;50.200;8.674;2023-07-13T23:52:36;100569.34;;;19.50;47.56
45323;BME280;31382;50.200;8.674;2023-07-13T23:57:37;100558.44;;;19.50;47.97
